Terminal Aerodrome Forecast
Issued by NWS

Home | Current Version | Previous Version | Text Only | Print | Product List | Glossary On
Versions: 1 2 3 4 5 6 7 8 9 10 11 12 13 14 15 16 17 18 19 20
000
FTUS43 KPAH 220542
TAFCGI
TAF
KCGI 220542Z 2206/2306 04014KT 6SM -RA BR BKN008
      TEMPO 2206/2209 4SM RA FEW008 OVC050
     FM221000 04015G22KT 6SM -SHRA OVC008
     FM221400 04013G19KT 4SM RA SCT008 OVC010
     FM221600 04014G20KT P6SM FEW008 OVC010
     FM230100 36012KT P6SM BKN015=

USA.gov is the U.S. government's official web portal to all federal, state and local government web resources and services.